nws-alerts: Checking more than four warning/county codes can delay the loading of your pages. You should use a cron job to get the data.
EllijayWeather Station Historical Data
Daily Summary for May 10, 2019 Units:  English    Metric   Both
Daily Weekly Monthly Yearly Custom
  High: Low: Average:
Temperature: 78.4 °F 59.4 °F 68.3 °F
Dew Point: 67.8 °F 58.8 °F 63.9 °F
Humidity: 100% 65% 87%
Wind Speed: 4mph 0mph 0.1mph
Wind Gust: 5mph - -
Wind- - SSE
Pressure: 30.09 in 30.01 in -
Precipitation: 0.04 in    
Historical Graphs
 
 
Tabular Data for May 10, 2019
Time Temperature Dew Point Pressure Wind Wind Speed Wind Gust Humidity Rainfall Rate (Hourly) solar
00:04 62.1 °F 61.2 °F 30.04 in Calm     97% 0 in meteobridge W/m2
00:09 62.1 °F 61.5 °F 30.04 in Calm     98% 0 in meteobridge W/m2
00:14 61.9 °F 61.3 °F 30.04 in Calm     98% 0 in meteobridge W/m2
00:19 61.7 °F 61.7 °F 30.05 in Calm     100% 0 in meteobridge W/m2
00:24 61.5 °F 60.6 °F 30.05 in Calm     97% 0 in meteobridge W/m2
00:29 61.5 °F 60.6 °F 30.05 in Calm     97% 0 in meteobridge W/m2
00:34 61.3 °F 60.4 °F 30.05 in Calm     97% 0 in meteobridge W/m2
00:39 61.3 °F 60.8 °F 30.05 in Calm     98% 0 in meteobridge W/m2
00:44 61.3 °F 60.4 °F 30.05 in Calm     97% 0 in meteobridge W/m2
00:49 61.2 °F 60.3 °F 30.05 in Calm     97% 0 in meteobridge W/m2
00:54 61 °F 60.1 °F 30.05 in Calm     97% 0 in meteobridge W/m2
00:59 61 °F 60.1 °F 30.05 in Calm     97% 0 in meteobridge W/m2
01:04 61 °F 60.4 °F 30.05 in Calm     98% 0 in meteobridge W/m2
01:09 60.8 °F 60.3 °F 30.04 in Calm     98% 0 in meteobridge W/m2
01:14 60.8 °F 60.3 °F 30.04 in Calm     98% 0 in meteobridge W/m2
01:19 60.8 °F 60.3 °F 30.04 in Calm     98% 0 in meteobridge W/m2
01:24 60.6 °F 60.1 °F 30.04 in Calm     98% 0 in meteobridge W/m2
01:29 60.6 °F 60.1 °F 30.04 in Calm     98% 0 in meteobridge W/m2
01:34 60.4 °F 59.9 °F 30.04 in Calm     98% 0 in meteobridge W/m2
01:39 60.6 °F 60.1 °F 30.04 in Calm     98% 0 in meteobridge W/m2
01:44 60.6 °F 60.1 °F 30.04 in Calm     98% 0 in meteobridge W/m2
01:49 60.6 °F 60.1 °F 30.04 in Calm     98% 0 in meteobridge W/m2
01:54 60.6 °F 60.1 °F 30.04 in Calm     98% 0 in meteobridge W/m2
01:59 60.8 °F 60.3 °F 30.04 in Calm     98% 0 in meteobridge W/m2
02:04 60.8 °F 60.3 °F 30.04 in Calm     98% 0 in meteobridge W/m2
02:09 60.8 °F 60.3 °F 30.04 in Calm     98% 0 in meteobridge W/m2
02:14 60.8 °F 60.3 °F 30.04 in Calm     98% 0 in meteobridge W/m2
02:19 60.8 °F 60.3 °F 30.04 in Calm     98% 0 in meteobridge W/m2
02:24 61 °F 60.4 °F 30.03 in Calm     98% 0 in meteobridge W/m2
02:29 61 °F 60.4 °F 30.03 in Calm     98% 0 in meteobridge W/m2
02:34 61 °F 60.4 °F 30.03 in Calm     98% 0 in meteobridge W/m2
02:39 61 °F 60.4 °F 30.02 in Calm     98% 0 in meteobridge W/m2
02:44 61 °F 60.4 °F 30.02 in Calm     98% 0 in meteobridge W/m2
02:49 61 °F 60.4 °F 30.02 in Calm     98% 0 in meteobridge W/m2
02:54 61 °F 60.4 °F 30.02 in Calm     98% 0 in meteobridge W/m2
02:59 61 °F 60.4 °F 30.02 in Calm     98% 0 in meteobridge W/m2
03:04 61 °F 60.4 °F 30.02 in Calm     98% 0 in meteobridge W/m2
03:09 61 °F 60.4 °F 30.02 in Calm     98% 0 in meteobridge W/m2
03:14 61 °F 60.4 °F 30.02 in Calm     98% 0 in meteobridge W/m2
03:19 61.2 °F 60.6 °F 30.02 in Calm     98% 0 in meteobridge W/m2
03:24 61.2 °F 60.6 °F 30.02 in Calm     98% 0 in meteobridge W/m2
03:29 61.2 °F 60.6 °F 30.03 in Calm     98% 0 in meteobridge W/m2
03:34 61.2 °F 60.6 °F 30.03 in Calm     98% 0 in meteobridge W/m2
03:39 61.2 °F 60.6 °F 30.03 in Calm     98% 0 in meteobridge W/m2
03:44 61.2 °F 60.6 °F 30.02 in Calm     98% 0 in meteobridge W/m2
03:49 61.3 °F 61 °F 30.02 in Calm     99% 0 in meteobridge W/m2
03:54 61.3 °F 61 °F 30.01 in Calm     99% 0 in meteobridge W/m2
03:59 61.2 °F 60.6 °F 30.01 in Calm     98% 0 in meteobridge W/m2
04:04 61.3 °F 60.8 °F 30.01 in Calm     98% 0 in meteobridge W/m2
04:09 61.2 °F 60.6 °F 30.01 in Calm     98% 0 in meteobridge W/m2
04:14 61 °F 60.4 °F 30.01 in Calm     98% 0 in meteobridge W/m2
04:19 61 °F 60.4 °F 30.01 in Calm     98% 0 in meteobridge W/m2
04:24 60.8 °F 60.3 °F 30.01 in Calm     98% 0 in meteobridge W/m2
04:29 60.6 °F 60.1 °F 30.01 in Calm     98% 0 in meteobridge W/m2
04:34 60.4 °F 59.9 °F 30.01 in Calm     98% 0 in meteobridge W/m2
04:39 60.4 °F 59.9 °F 30.01 in Calm     98% 0 in meteobridge W/m2
04:44 60.3 °F 59.7 °F 30.01 in Calm     98% 0 in meteobridge W/m2
04:49 60.1 °F 59.5 °F 30.01 in Calm     98% 0 in meteobridge W/m2
04:54 59.9 °F 59.4 °F 30.01 in Calm     98% 0 in meteobridge W/m2
04:59 59.7 °F 59.2 °F 30.01 in Calm     98% 0 in meteobridge W/m2
05:04 59.7 °F 59.2 °F 30.02 in Calm     98% 0 in meteobridge W/m2
05:09 59.5 °F 59 °F 30.02 in Calm     98% 0 in meteobridge W/m2
05:14 59.5 °F 59 °F 30.03 in Calm     98% 0 in meteobridge W/m2
05:19 59.5 °F 59 °F 30.03 in Calm     98% 0 in meteobridge W/m2
05:24 59.5 °F 59 °F 30.03 in Calm     98% 0 in meteobridge W/m2
05:29 59.4 °F 58.8 °F 30.03 in Calm     98% 0 in meteobridge W/m2
05:34 59.4 °F 58.8 °F 30.03 in Calm     98% 0 in meteobridge W/m2
05:39 59.4 °F 58.8 °F 30.03 in Calm     98% 0 in meteobridge W/m2
05:44 59.5 °F 59 °F 30.03 in Calm     98% 0 in meteobridge W/m2
05:49 59.5 °F 59 °F 30.03 in Calm     98% 0 in meteobridge W/m2
05:54 59.4 °F 58.8 °F 30.04 in Calm     98% 0 in meteobridge W/m2
05:59 59.4 °F 58.8 °F 30.04 in Calm     98% 0 in meteobridge W/m2
06:04 59.4 °F 58.8 °F 30.04 in Calm     98% 0 in meteobridge W/m2
06:09 59.5 °F 59 °F 30.04 in Calm     98% 0 in meteobridge W/m2
06:14 59.5 °F 59.2 °F 30.04 in Calm     99% 0 in meteobridge W/m2
06:19 59.5 °F 59 °F 30.04 in Calm     98% 0 in meteobridge W/m2
06:24 59.5 °F 59.2 °F 30.04 in Calm     99% 0 in meteobridge W/m2
06:29 59.5 °F 59.2 °F 30.05 in Calm     99% 0 in meteobridge W/m2
06:34 59.5 °F 59.2 °F 30.05 in Calm     99% 0 in meteobridge W/m2
06:39 59.7 °F 59.4 °F 30.05 in Calm     99% 0 in meteobridge W/m2
06:44 59.7 °F 59.4 °F 30.05 in Calm     99% 0 in meteobridge W/m2
06:49 59.7 °F 59.4 °F 30.05 in Calm     99% 0 in meteobridge W/m2
06:54 59.9 °F 59.5 °F 30.04 in Calm     99% 0 in meteobridge W/m2
06:59 60.1 °F 59.7 °F 30.04 in Calm     99% 0 in meteobridge W/m2
07:04 60.1 °F 59.7 °F 30.04 in Calm     99% 0 in meteobridge W/m2
07:09 60.3 °F 59.9 °F 30.04 in Calm     99% 0 in meteobridge W/m2
07:14 60.3 °F 59.9 °F 30.05 in Calm     99% 0 in meteobridge W/m2
07:19 60.4 °F 60.1 °F 30.05 in Calm     99% 0 in meteobridge W/m2
07:24 60.4 °F 60.1 °F 30.05 in Calm     99% 0 in meteobridge W/m2
07:29 60.6 °F 60.3 °F 30.05 in Calm     99% 0 in meteobridge W/m2
07:34 60.8 °F 60.4 °F 30.05 in Calm     99% 0 in meteobridge W/m2
07:39 61 °F 60.6 °F 30.05 in Calm     99% 0 in meteobridge W/m2
07:44 61.2 °F 60.8 °F 30.05 in Calm     99% 0 in meteobridge W/m2
07:49 61.3 °F 61 °F 30.05 in Calm     99% 0 in meteobridge W/m2
07:54 61.5 °F 61.2 °F 30.06 in Calm     99% 0 in meteobridge W/m2
07:59 61.9 °F 61.5 °F 30.06 in Calm     99% 0 in meteobridge W/m2
08:04 62.1 °F 61.7 °F 30.06 in Calm     99% 0 in meteobridge W/m2
08:09 62.2 °F 61.9 °F 30.06 in Calm     99% 0 in meteobridge W/m2
08:14 62.4 °F 62.1 °F 30.06 in Calm     99% 0 in meteobridge W/m2
08:19 62.6 °F 62.2 °F 30.06 in Calm     99% 0 in meteobridge W/m2
08:24 62.8 °F 62.4 °F 30.06 in Calm     99% 0 in meteobridge W/m2
08:29 63 °F 62.6 °F 30.06 in Calm     99% 0 in meteobridge W/m2
08:34 63.3 °F 63 °F 30.07 in Calm     99% 0 in meteobridge W/m2
08:39 63.7 °F 63.3 °F 30.07 in Calm     99% 0 in meteobridge W/m2
08:44 63.9 °F 63.5 °F 30.07 in Calm     99% 0 in meteobridge W/m2
08:49 64 °F 63.7 °F 30.07 in Calm     99% 0 in meteobridge W/m2
08:54 64.4 °F 64 °F 30.07 in Calm     99% 0 in meteobridge W/m2
08:59 64.8 °F 64.4 °F 30.07 in Calm     99% 0 in meteobridge W/m2
09:04 64.9 °F 64.6 °F 30.08 in Calm     99% 0 in meteobridge W/m2
09:09 65.1 °F 64.8 °F 30.08 in Calm     99% 0 in meteobridge W/m2
09:14 65.5 °F 65.1 °F 30.08 in Calm     99% 0 in meteobridge W/m2
09:19 65.7 °F 65.3 °F 30.08 in Calm     99% 0 in meteobridge W/m2
09:24 65.8 °F 65.5 °F 30.08 in Calm     99% 0 in meteobridge W/m2
09:29 65.8 °F 65.5 °F 30.08 in Calm     99% 0 in meteobridge W/m2
09:34 65.8 °F 65.5 °F 30.08 in Calm     99% 0 in meteobridge W/m2
09:39 66.2 °F 65.8 °F 30.09 in Calm     99% 0 in meteobridge W/m2
09:44 66.4 °F 66 °F 30.08 in Calm     99% 0 in meteobridge W/m2
09:49 66.7 °F 65.8 °F 30.09 in Calm     97% 0 in meteobridge W/m2
09:54 66.9 °F 65.1 °F 30.09 in Calm     94% 0 in meteobridge W/m2
09:59 66.9 °F 65.1 °F 30.09 in Calm     94% 0 in meteobridge W/m2
10:04 67.1 °F 64.9 °F 30.09 in Calm   1 mph 93% 0 in meteobridge W/m2
10:09 67.3 °F 65.8 °F 30.09 in Calm     95% 0 in meteobridge W/m2
10:14 67.5 °F 65.7 °F 30.09 in Calm     94% 0 in meteobridge W/m2
10:19 67.8 °F 65.5 °F 30.09 in Calm     92% 0 in meteobridge W/m2
10:24 68.2 °F 66.4 °F 30.09 in Calm     94% 0 in meteobridge W/m2
10:29 68.5 °F 65.8 °F 30.08 in Calm   1 mph 91% 0 in meteobridge W/m2
10:34 68.7 °F 65.7 °F 30.08 in Calm     90% 0 in meteobridge W/m2
10:39 69.3 °F 65.8 °F 30.08 in Calm   1 mph 89% 0 in meteobridge W/m2
10:44 70 °F 65.3 °F 30.08 in Calm   1 mph 85% 0 in meteobridge W/m2
10:49 70.2 °F 66 °F 30.08 in Calm     87% 0 in meteobridge W/m2
10:54 70.3 °F 66 °F 30.08 in Calm   1 mph 86% 0 in meteobridge W/m2
10:59 70.7 °F 66.4 °F 30.08 in Calm     86% 0 in meteobridge W/m2
11:04 71.2 °F 65.8 °F 30.08 in Calm   1 mph 83% 0 in meteobridge W/m2
11:09 71.6 °F 66.2 °F 30.08 in Calm     83% 0 in meteobridge W/m2
11:14 72.3 °F 66.2 °F 30.07 in Calm   1 mph 81% 0 in meteobridge W/m2
11:19 72.5 °F 65.7 °F 30.07 in Calm     79% 0 in meteobridge W/m2
11:24 72.9 °F 66.4 °F 30.07 in ESE 0.9 mph 1 mph 80% 0 in meteobridge W/m2
11:29 73.2 °F 64.8 °F 30.07 in Calm   1 mph 75% 0 in meteobridge W/m2
11:34 73.2 °F 65.7 °F 30.07 in Calm     77% 0 in meteobridge W/m2
11:39 73.2 °F 66 °F 30.08 in Calm   1 mph 78% 0 in meteobridge W/m2
11:44 73 °F 66.2 °F 30.08 in Calm     79% 0 in meteobridge W/m2
11:49 72.9 °F 65.7 °F 30.08 in Calm   2 mph 78% 0 in meteobridge W/m2
11:54 73.2 °F 65.1 °F 30.07 in ESE 0.9 mph 2 mph 76% 0 in meteobridge W/m2
11:59 73.4 °F 65.3 °F 30.07 in Calm     76% 0 in meteobridge W/m2
12:04 73.4 °F 65.7 °F 30.07 in Calm     77% 0 in meteobridge W/m2
12:09 73.8 °F 66 °F 30.07 in ESE 0.9 mph 1 mph 77% 0 in meteobridge W/m2
12:14 73.9 °F 65.1 °F 30.07 in Calm     74% 0 in meteobridge W/m2
12:19 73.6 °F 65.8 °F 30.07 in Calm     77% 0 in meteobridge W/m2
12:24 73.2 °F 65.1 °F 30.07 in Calm     76% 0 in meteobridge W/m2
12:29 73.4 °F 66.2 °F 30.06 in Calm     78% 0 in meteobridge W/m2
12:34 74.3 °F 67.3 °F 30.07 in Calm     79% 0 in meteobridge W/m2
12:39 74.8 °F 65.1 °F 30.07 in Calm     72% 0 in meteobridge W/m2
12:44 75 °F 66.2 °F 30.07 in Calm     74% 0 in meteobridge W/m2
12:49 75 °F 66.6 °F 30.07 in Calm     75% 0 in meteobridge W/m2
12:54 75.6 °F 65.8 °F 30.07 in Calm     72% 0 in meteobridge W/m2
12:59 75.6 °F 65.5 °F 30.07 in Calm     71% 0 in meteobridge W/m2
13:04 75.2 °F 66.4 °F 30.08 in Calm     74% 0 in meteobridge W/m2
13:09 75.4 °F 65.7 °F 30.07 in ESE 4 mph 4 mph 72% 0 in meteobridge W/m2
13:14 75.7 °F 66 °F 30.07 in Calm     72% 0 in meteobridge W/m2
13:19 75.7 °F 66.4 °F 30.07 in Calm     73% 0 in meteobridge W/m2
13:24 75.7 °F 64.8 °F 30.07 in Calm   4 mph 69% 0 in meteobridge W/m2
13:29 75.7 °F 65.7 °F 30.07 in Calm   1 mph 71% 0 in meteobridge W/m2
13:34 75.7 °F 66.4 °F 30.08 in Calm     73% 0 in meteobridge W/m2
13:39 75.7 °F 66.9 °F 30.08 in Calm     74% 0 in meteobridge W/m2
13:44 76.3 °F 67.5 °F 30.08 in Calm   4 mph 74% 0 in meteobridge W/m2
13:49 76.6 °F 66.2 °F 30.08 in Calm   4 mph 70% 0 in meteobridge W/m2
13:54 76.5 °F 65.5 °F 30.08 in Calm     69% 0 in meteobridge W/m2
13:59 76.5 °F 66.4 °F 30.08 in Calm   5 mph 71% 0 in meteobridge W/m2
14:04 76.5 °F 66.4 °F 30.09 in Calm     71% 0 in meteobridge W/m2
14:09 76.3 °F 66.2 °F 30.08 in Calm     71% 0 in meteobridge W/m2
14:14 76.5 °F 66.4 °F 30.08 in Calm   2 mph 71% 0 in meteobridge W/m2
14:19 76.8 °F 66.2 °F 30.08 in Calm   1 mph 70% 0 in meteobridge W/m2
14:24 77.2 °F 65.8 °F 30.07 in NE 0.9 mph 1 mph 68% 0 in meteobridge W/m2
14:29 77.2 °F 64.9 °F 30.07 in Calm   2 mph 66% 0 in meteobridge W/m2
14:34 77.4 °F 65.1 °F 30.07 in ESE 0.9 mph 5 mph 66% 0 in meteobridge W/m2
14:39 77.5 °F 66.2 °F 30.07 in WNW 2 mph 3 mph 68% 0 in meteobridge W/m2
14:44 77.7 °F 67.1 °F 30.07 in Calm   2 mph 70% 0 in meteobridge W/m2
14:49 77.7 °F 65.5 °F 30.07 in Calm   4 mph 66% 0 in meteobridge W/m2
14:54 77.7 °F 64.9 °F 30.07 in Calm   1 mph 65% 0 in meteobridge W/m2
14:59 77.4 °F 65.1 °F 30.07 in Calm     66% 0 in meteobridge W/m2
15:04 77 °F 65.7 °F 30.07 in Calm     68% 0 in meteobridge W/m2
15:09 77 °F 66.9 °F 30.07 in Calm     71% 0 in meteobridge W/m2
15:14 77.2 °F 65.3 °F 30.07 in Calm     67% 0 in meteobridge W/m2
15:19 77.4 °F 65.5 °F 30.07 in Calm   1 mph 67% 0 in meteobridge W/m2
15:24 77.5 °F 66.2 °F 30.07 in East 0.9 mph 2 mph 68% 0 in meteobridge W/m2
15:29 77.5 °F 65.7 °F 30.07 in Calm   1 mph 67% 0 in meteobridge W/m2
15:33 77.4 °F 65.1 °F 30.07 in Calm   1 mph 66% 0 in meteobridge W/m2
15:39 77.2 °F 65.8 °F 30.07 in Calm     68% 0 in meteobridge W/m2
15:44 77.4 °F 65.1 °F 30.06 in Calm     66% 0 in meteobridge W/m2
15:49 77.5 °F 66.2 °F 30.06 in Calm     68% 0 in meteobridge W/m2
15:54 77.5 °F 65.7 °F 30.06 in Calm     67% 0 in meteobridge W/m2
15:59 77.5 °F 66.6 °F 30.06 in Calm     69% 0 in meteobridge W/m2
16:04 77.7 °F 64.9 °F 30.06 in Calm     65% 0 in meteobridge W/m2
16:09 77.9 °F 65.7 °F 30.06 in Calm   1 mph 66% 0 in meteobridge W/m2
16:14 77.7 °F 64.9 °F 30.06 in Calm     65% 0 in meteobridge W/m2
16:19 77.9 °F 66.6 °F 30.05 in Calm     68% 0 in meteobridge W/m2
16:24 78.3 °F 67.3 °F 30.05 in East 2 mph 2 mph 69% 0 in meteobridge W/m2
16:29 78.1 °F 65.8 °F 30.05 in Calm   1 mph 66% 0 in meteobridge W/m2
16:34 78.1 °F 66.2 °F 30.05 in Calm     67% 0 in meteobridge W/m2
16:39 78.3 °F 66.4 °F 30.05 in NW 2.9 mph 3 mph 67% 0 in meteobridge W/m2
16:44 78.4 °F 67.5 °F 30.04 in WNW 0.9 mph 1 mph 69% 0 in meteobridge W/m2
16:49 78.4 °F 66.6 °F 30.04 in Calm     67% 0 in meteobridge W/m2
16:54 78.3 °F 66.4 °F 30.04 in Calm     67% 0 in meteobridge W/m2
16:59 77.7 °F 66.4 °F 30.04 in Calm     68% 0 in meteobridge W/m2
17:03 77.5 °F 66.2 °F 30.04 in Calm     68% 0 in meteobridge W/m2
17:09 77.4 °F 66.7 °F 30.04 in Calm     70% 0 in meteobridge W/m2
17:14 77.2 °F 67.1 °F 30.04 in Calm     71% 0 in meteobridge W/m2
17:19 77.2 °F 66.6 °F 30.03 in Calm     70% 0 in meteobridge W/m2
17:24 76.8 °F 66.2 °F 30.03 in Calm     70% 0 in meteobridge W/m2
17:29 76.8 °F 66.2 °F 30.03 in Calm     70% 0 in meteobridge W/m2
17:34 76.6 °F 66.6 °F 30.03 in Calm     71% 0 in meteobridge W/m2
17:39 76.6 °F 66.9 °F 30.03 in Calm     72% 0 in meteobridge W/m2
17:44 76.6 °F 66.9 °F 30.03 in Calm     72% 0 in meteobridge W/m2
17:49 76.6 °F 66.2 °F 30.03 in Calm     70% 0 in meteobridge W/m2
17:54 76.6 °F 66.2 °F 30.03 in Calm     70% 0 in meteobridge W/m2
17:59 76.8 °F 65.8 °F 30.03 in Calm     69% 0 in meteobridge W/m2
18:04 76.6 °F 66.2 °F 30.03 in Calm     70% 0 in meteobridge W/m2
18:09 76.6 °F 65.7 °F 30.03 in Calm     69% 0 in meteobridge W/m2
18:14 76.8 °F 65.8 °F 30.03 in Calm     69% 0 in meteobridge W/m2
18:19 76.8 °F 66.7 °F 30.03 in Calm     71% 0 in meteobridge W/m2
18:24 76.6 °F 65.7 °F 30.03 in Calm     69% 0 in meteobridge W/m2
18:29 76.5 °F 65.5 °F 30.03 in Calm     69% 0 in meteobridge W/m2
18:34 76.5 °F 66 °F 30.03 in Calm     70% 0 in meteobridge W/m2
18:39 76.5 °F 66 °F 30.03 in Calm     70% 0 in meteobridge W/m2
18:44 76.3 °F 66.2 °F 30.02 in Calm     71% 0 in meteobridge W/m2
18:49 76.3 °F 66.2 °F 30.02 in Calm     71% 0 in meteobridge W/m2
18:54 75.9 °F 66.2 °F 30.02 in Calm     72% 0 in meteobridge W/m2
18:59 75.9 °F 66.6 °F 30.03 in Calm     73% 0 in meteobridge W/m2
19:04 75.7 °F 66 °F 30.02 in Calm     72% 0 in meteobridge W/m2
19:09 75.6 °F 66.7 °F 30.03 in Calm     74% 0 in meteobridge W/m2
19:14 75.4 °F 66.9 °F 30.03 in Calm     75% 0 in meteobridge W/m2
19:19 75 °F 67.3 °F 30.03 in Calm     77% 0 in meteobridge W/m2
19:24 74.8 °F 67.1 °F 30.03 in Calm     77% 0 in meteobridge W/m2
19:29 74.5 °F 67.8 °F 30.03 in Calm     80% 0 in meteobridge W/m2
19:34 74.1 °F 67.6 °F 30.03 in Calm     80% 0 in meteobridge W/m2
19:39 73.9 °F 67.5 °F 30.02 in Calm     80% 0 in meteobridge W/m2
19:44 73.8 °F 67.3 °F 30.02 in Calm     80% 0 in meteobridge W/m2
19:49 73.6 °F 67.1 °F 30.02 in Calm     80% 0 in meteobridge W/m2
19:54 73.2 °F 66.7 °F 30.02 in Calm     80% 0 in meteobridge W/m2
19:59 72.9 °F 67.1 °F 30.03 in Calm     82% 0 in meteobridge W/m2
20:04 72.3 °F 66.9 °F 30.02 in Calm     83% 0 in meteobridge W/m2
20:09 72 °F 66.9 °F 30.02 in Calm     84% 0 in meteobridge W/m2
20:14 71.8 °F 66.7 °F 30.02 in Calm     84% 0 in meteobridge W/m2
20:19 71.4 °F 66.7 °F 30.03 in Calm     85% 0 in meteobridge W/m2
20:24 71.2 °F 66.6 °F 30.03 in Calm     85% 0 in meteobridge W/m2
20:29 71.1 °F 66.7 °F 30.03 in Calm     86% 0 in meteobridge W/m2
20:34 70.7 °F 66.4 °F 30.03 in Calm     86% 0 in meteobridge W/m2
20:39 70.3 °F 66 °F 30.03 in Calm     86% 0 in meteobridge W/m2
20:44 70.2 °F 66 °F 30.03 in Calm     87% 0 in meteobridge W/m2
20:49 70 °F 66.2 °F 30.03 in Calm     88% 0 in meteobridge W/m2
20:54 69.6 °F 65.8 °F 30.04 in Calm     88% 0 in meteobridge W/m2
20:59 69.3 °F 65.8 °F 30.03 in Calm     89% 0 in meteobridge W/m2
21:04 69.3 °F 65.8 °F 30.04 in Calm     89% 0 in meteobridge W/m2
21:09 69.1 °F 66 °F 30.04 in Calm     90% 0 in meteobridge W/m2
21:14 68.7 °F 65.7 °F 30.04 in Calm     90% 0 in meteobridge W/m2
21:19 68.5 °F 65.8 °F 30.03 in Calm     91% 0 in meteobridge W/m2
21:24 68.5 °F 65.8 °F 30.03 in Calm     91% 0 in meteobridge W/m2
21:29 68.4 °F 65.7 °F 30.03 in Calm     91% 0 in meteobridge W/m2
21:34 68.2 °F 65.5 °F 30.03 in Calm     91% 0 in meteobridge W/m2
21:39 68.2 °F 65.5 °F 30.03 in Calm     91% 0 in meteobridge W/m2
21:44 68 °F 65.3 °F 30.03 in Calm     91% 0 in meteobridge W/m2
21:49 68 °F 65.7 °F 30.03 in Calm     92% 0 in meteobridge W/m2
21:54 67.8 °F 65.5 °F 30.03 in Calm     92% 0 in meteobridge W/m2
21:59 67.8 °F 65.5 °F 30.03 in Calm     92% 0 in meteobridge W/m2
22:04 67.8 °F 65.5 °F 30.03 in Calm     92% 0 in meteobridge W/m2
22:09 67.6 °F 65.3 °F 30.03 in Calm     92% 0 in meteobridge W/m2
22:14 67.6 °F 65.3 °F 30.03 in Calm     92% 0 in meteobridge W/m2
22:19 67.6 °F 65.3 °F 30.04 in Calm     92% 0 in meteobridge W/m2
22:24 67.6 °F 65.3 °F 30.03 in Calm     92% 0 in meteobridge W/m2
22:29 67.6 °F 65.3 °F 30.04 in Calm     92% 0 in meteobridge W/m2
22:34 67.6 °F 65.5 °F 30.04 in Calm     93% 0 in meteobridge W/m2
22:39 67.5 °F 65.3 °F 30.04 in Calm     93% 0 in meteobridge W/m2
22:44 67.5 °F 65.3 °F 30.04 in Calm     93% 0 in meteobridge W/m2
22:49 67.5 °F 65.3 °F 30.04 in Calm     93% 0 in meteobridge W/m2
22:54 67.5 °F 65.3 °F 30.04 in Calm     93% 0 in meteobridge W/m2
22:59 67.3 °F 65.1 °F 30.05 in Calm     93% 0 in meteobridge W/m2
23:04 67.3 °F 65.1 °F 30.05 in Calm     93% 0 in meteobridge W/m2
23:09 67.3 °F 65.5 °F 30.05 in Calm     94% 0 in meteobridge W/m2
23:14 67.1 °F 65.3 °F 30.05 in Calm     94% 0 in meteobridge W/m2
23:19 67.1 °F 65.3 °F 30.05 in Calm     94% 0 in meteobridge W/m2
23:24 67.1 °F 65.3 °F 30.04 in Calm     94% 0 in meteobridge W/m2
23:29 67.1 °F 65.3 °F 30.05 in Calm     94% 0 in meteobridge W/m2
23:34 66.9 °F 65.1 °F 30.05 in Calm     94% 0 in meteobridge W/m2
23:39 66.9 °F 65.1 °F 30.06 in Calm     94% 0 in meteobridge W/m2
23:44 66.9 °F 65.5 °F 30.06 in Calm     95% 0.01 in meteobridge W/m2
23:49 66.9 °F 65.5 °F 30.06 in Calm     95% 0.02 in meteobridge W/m2
23:54 66.9 °F 65.7 °F 30.06 in Calm     96% 0.02 in meteobridge W/m2
23:59 66.9 °F 65.7 °F 30.06 in Calm     96% 0.04 in meteobridge W/m2
EllijayWeather
Compliments of Weather Underground - 2.5 mb